Airfield :
LOGIN :

Register | Disclaimer

   EN    FR    IT 

 










Legend :    VFR   Marginal VFR   IFR   Intensive IFR   Very Intensive IFR
Visi :
Ceiling :
>= 8 km
>= 3000ft
5 to 8 km
1000 to 3000 ft
1500m to 5 km
500 to 1000 ft
800 to 1500m
200 to 500 ft
< 800m
< 200 ft
Symbols :   Thunderstorms  Fog  Heavy snow  Heavy precipitations  Wind > 20 kt
SIGMETs :     Misc.  Thunderstorms  Icing  Turbulence  Mountain Waves  Volcanic Ashes







- Airport Elevation : 297 ft


EGVP - Middle Wallop

CURRENT METAR :
  • 191150Z 15011KT 7000 HZ BKN009 17/15 Q1001 GRN TEMPO 3000 RADZ BKN006 YLO1

EXPIRED METARs :
  • 191050Z 14009KT 7000 HZ BKN009 BKN055 16/15 Q1002 GRN TEMPO 8000 GRN
  • 191009Z 13009KT 4000 BR FEW006 BKN045 16/15 Q1003 GRN TEMPO SCT006 YLO1

TAF TAF EGVP
Valid from the 19 at 12:00 until the 19 at 21:00 UTC


191058Z 1912/1921 18012KT 6000 HZ BKN008
TEMPO 1912/1914 8000 BR FEW010
PROB30
TEMPO 1912/1914 3000 BR BKN003
BECMG 1913/1915 9999 NSW SCT015
TEMPO 1913/1917 FEW015
BECMG 1917/1919 6000 RA SCT010
ATIS : +44 1980 674 142
No reported NOTAMs for that airfield.



MET'MAP, your aeronautical weather chart ! - Copyright ORBIFLY December 2007 - Disclaimer

ORBIFLY MET'MAP TEAM :

Programming & Development : Alexandra Zaïnal
Concept & Development : Baudouin d'Aumeries
Co-Development & Prog : Marc-Olivier Méhu
Technical & hardware support : Manuel Goepfert

Contact : metmap@orbifly.com




SOURCES & CREDITS :

   NOAA